sensor_id;sensor_type;location;lat;lon;timestamp;P1;durP1;ratioP1;P2;durP2;ratioP2
34184;SDS011;20454;48.100;11.776;2022-09-23T09:54:53;1.27;;;1.17;;
34184;SDS011;20454;48.100;11.776;2022-09-23T09:57:42;1.90;;;1.80;;
34184;SDS011;20454;48.100;11.776;2022-09-23T10:03:19;1.27;;;1.17;;
34184;SDS011;20454;48.100;11.776;2022-09-23T10:06:12;1.60;;;1.50;;
34184;SDS011;20454;48.100;11.776;2022-09-23T10:09:02;1.83;;;1.42;;
34184;SDS011;20454;48.100;11.776;2022-09-23T10:11:36;2.15;;;1.48;;
34184;SDS011;20454;48.100;11.776;2022-09-23T10:14:16;4.63;;;1.92;;
34184;SDS011;20454;48.100;11.776;2022-09-23T10:16:43;1.65;;;1.50;;
34184;SDS011;20454;48.100;11.776;2022-09-23T10:19:26;1.75;;;1.38;;
34184;SDS011;20454;48.100;11.776;2022-09-23T10:21:54;2.60;;;1.30;;
34184;SDS011;20454;48.100;11.776;2022-09-23T10:24:33;1.00;;;1.00;;
34184;SDS011;20454;48.100;11.776;2022-09-23T10:27:08;2.42;;;1.60;;
34184;SDS011;20454;48.100;11.776;2022-09-23T10:29:38;3.08;;;1.25;;
34184;SDS011;20454;48.100;11.776;2022-09-23T10:40:17;2.35;;;1.23;;
34184;SDS011;20454;48.100;11.776;2022-09-23T10:43:10;1.13;;;1.02;;
34184;SDS011;20454;48.100;11.776;2022-09-23T10:46:29;1.80;;;1.00;;
34184;SDS011;20454;48.100;11.776;2022-09-23T10:49:15;2.63;;;1.25;;
34184;SDS011;20454;48.100;11.776;2022-09-23T10:58:02;2.45;;;1.08;;
34184;SDS011;20454;48.100;11.776;2022-09-23T11:01:04;1.35;;;1.20;;
34184;SDS011;20454;48.100;11.776;2022-09-23T11:09:51;2.35;;;1.83;;
34184;SDS011;20454;48.100;11.776;2022-09-23T11:12:49;1.77;;;1.67;;
34184;SDS011;20454;48.100;11.776;2022-09-23T11:24:42;2.20;;;1.23;;
34184;SDS011;20454;48.100;11.776;2022-09-23T11:30:11;2.30;;;1.70;;
34184;SDS011;20454;48.100;11.776;2022-09-23T11:36:01;1.77;;;1.65;;
34184;SDS011;20454;48.100;11.776;2022-09-23T11:38:36;1.48;;;1.23;;
34184;SDS011;20454;48.100;11.776;2022-09-23T11:41:23;1.77;;;1.00;;
34184;SDS011;20454;48.100;11.776;2022-09-23T11:44:06;1.92;;;1.27;;
34184;SDS011;20454;48.100;11.776;2022-09-23T11:46:54;1.35;;;1.10;;
34184;SDS011;20454;48.100;11.776;2022-09-23T11:49:44;1.25;;;1.15;;
34184;SDS011;20454;48.100;11.776;2022-09-23T11:52:28;0.90;;;0.90;;
34184;SDS011;20454;48.100;11.776;2022-09-23T11:55:12;1.27;;;1.00;;
34184;SDS011;20454;48.100;11.776;2022-09-23T12:00:36;4.90;;;1.05;;
34184;SDS011;20454;48.100;11.776;2022-09-23T12:03:24;2.92;;;2.72;;
34184;SDS011;20454;48.100;11.776;2022-09-23T12:06:32;2.35;;;1.88;;
34184;SDS011;20454;48.100;11.776;2022-09-23T12:09:15;2.95;;;1.05;;
34184;SDS011;20454;48.100;11.776;2022-09-23T12:11:59;2.80;;;1.40;;
34184;SDS011;20454;48.100;11.776;2022-09-23T12:23:28;4.93;;;2.60;;
34184;SDS011;20454;48.100;11.776;2022-09-23T12:26:26;3.33;;;1.40;;
34184;SDS011;20454;48.100;11.776;2022-09-23T12:28:54;1.23;;;1.00;;
34184;SDS011;20454;48.100;11.776;2022-09-23T12:31:26;1.58;;;1.10;;
34184;SDS011;20454;48.100;11.776;2022-09-23T12:33:57;3.88;;;1.20;;
34184;SDS011;20454;48.100;11.776;2022-09-23T12:36:28;1.23;;;1.13;;
34184;SDS011;20454;48.100;11.776;2022-09-23T12:39:15;1.33;;;1.20;;
34184;SDS011;20454;48.100;11.776;2022-09-23T12:42:05;1.90;;;1.10;;
34184;SDS011;20454;48.100;11.776;2022-09-23T12:44:41;1.33;;;1.17;;
34184;SDS011;20454;48.100;11.776;2022-09-23T12:49:45;1.67;;;1.30;;
34184;SDS011;20454;48.100;11.776;2022-09-23T12:54:42;2.65;;;1.27;;
34184;SDS011;20454;48.100;11.776;2022-09-23T13:02:39;1.48;;;1.38;;
34184;SDS011;20454;48.100;11.776;2022-09-23T13:05:24;5.35;;;1.00;;
34184;SDS011;20454;48.100;11.776;2022-09-23T13:08:16;2.00;;;1.58;;
34184;SDS011;20454;48.100;11.776;2022-09-23T13:10:47;1.35;;;1.25;;
34184;SDS011;20454;48.100;11.776;2022-09-23T13:13:25;1.70;;;1.08;;
34184;SDS011;20454;48.100;11.776;2022-09-23T13:16:08;4.65;;;2.00;;
34184;SDS011;20454;48.100;11.776;2022-09-23T13:18:49;2.40;;;1.83;;
34184;SDS011;20454;48.100;11.776;2022-09-23T16:07:41;2.00;;;1.80;;
34184;SDS011;20454;48.100;11.776;2022-09-23T16:10:07;1.90;;;1.70;;
34184;SDS011;20454;48.100;11.776;2022-09-23T16:12:32;2.55;;;1.50;;
34184;SDS011;20454;48.100;11.776;2022-09-23T16:14:58;1.83;;;1.50;;
34184;SDS011;20454;48.100;11.776;2022-09-23T16:17:24;1.65;;;1.55;;
34184;SDS011;20454;48.100;11.776;2022-09-23T16:19:52;3.05;;;2.03;;
34184;SDS011;20454;48.100;11.776;2022-09-23T16:22:18;2.38;;;2.17;;
34184;SDS011;20454;48.100;11.776;2022-09-23T16:24:43;2.63;;;2.38;;
34184;SDS011;20454;48.100;11.776;2022-09-23T16:27:11;2.25;;;2.05;;
34184;SDS011;20454;48.100;11.776;2022-09-23T16:29:41;3.33;;;3.10;;
34184;SDS011;20454;48.100;11.776;2022-09-23T16:32:07;2.55;;;2.30;;
34184;SDS011;20454;48.100;11.776;2022-09-23T16:34:33;6.50;;;2.22;;
34184;SDS011;20454;48.100;11.776;2022-09-23T16:36:59;2.17;;;1.88;;
34184;SDS011;20454;48.100;11.776;2022-09-23T16:39:25;2.58;;;2.38;;
34184;SDS011;20454;48.100;11.776;2022-09-23T16:41:51;3.17;;;2.53;;
34184;SDS011;20454;48.100;11.776;2022-09-23T16:44:16;3.47;;;3.28;;
34184;SDS011;20454;48.100;11.776;2022-09-23T16:46:42;4.57;;;4.20;;
34184;SDS011;20454;48.100;11.776;2022-09-23T16:49:08;3.50;;;3.22;;
